Time;durP1;ratioP1;P1;durP2;ratioP2;P2;SDS_P1;SDS_P2;PMS_P1;PMS_P2;Temp;Humidity;BMP_temperature;BMP_pressure;BME280_temperature;BME280_humidity;BME280_pressure;Samples;Min_cycle;Max_cycle;Signal;HPM_P1;HPM_P2
2022/11/04 00:01:14;;;;;;;7.93;7.13;;;11.90;99.90;;;;;;5114562;28;20046;-68
2022/11/04 00:03:40;;;;;;;8.95;7.38;;;11.90;99.90;;;;;;5114558;28;20044;-68
2022/11/04 00:06:06;;;;;;;8.98;7.20;;;11.90;99.90;;;;;;5114562;28;20043;-68
2022/11/04 00:08:32;;;;;;;7.55;6.75;;;11.90;99.90;;;;;;5116014;28;20039;-68
2022/11/04 00:13:43;;;;;;;8.18;5.95;;;11.90;99.90;;;;;;5114429;28;20397;-68
2022/11/04 00:18:53;;;;;;;7.25;5.63;;;11.80;99.90;;;;;;5114325;28;20039;-68
2022/11/04 00:29:32;;;;;;;4.63;2.35;;;11.60;99.90;;;;;;5113961;28;20047;-68
2022/11/04 00:34:41;;;;;;;3.90;1.58;;;11.50;99.90;;;;;;5114127;28;20051;-68
2022/11/04 00:37:07;;;;;;;4.28;1.67;;;11.40;99.90;;;;;;5114495;28;20066;-68
2022/11/04 00:39:32;;;;;;;2.40;1.27;;;11.40;99.90;;;;;;5113837;28;20035;-68
2022/11/04 00:41:58;;;;;;;3.58;1.60;;;11.40;99.90;;;;;;5113715;28;20040;-68
2022/11/04 00:44:24;;;;;;;4.28;1.80;;;11.30;99.90;;;;;;5113811;28;20039;-68
2022/11/04 00:46:49;;;;;;;4.80;1.50;;;11.30;99.90;;;;;;5114014;28;20047;-68
2022/11/04 00:49:15;;;;;;;2.88;1.20;;;11.20;99.90;;;;;;5113624;28;20488;-68
2022/11/04 00:51:40;;;;;;;2.55;1.55;;;11.30;99.90;;;;;;5113597;28;20040;-68
2022/11/04 00:54:06;;;;;;;3.08;1.08;;;11.20;99.90;;;;;;5113593;28;20103;-68
2022/11/04 00:56:31;;;;;;;3.38;1.58;;;11.30;99.90;;;;;;5115349;28;20039;-68
2022/11/04 00:59:00;;;;;;;2.42;0.90;;;11.20;99.90;;;;;;5113533;28;20436;-68
2022/11/04 01:01:26;;;;;;;1.90;0.50;;;11.20;99.90;;;;;;5114667;28;20050;-68
2022/11/04 01:03:53;;;;;;;2.65;0.50;;;11.20;99.90;;;;;;5114666;28;20040;-68
2022/11/04 01:06:21;;;;;;;3.83;0.70;;;11.20;99.90;;;;;;5113359;28;20381;-68
2022/11/04 01:08:47;;;;;;;0.57;0.30;;;11.20;99.90;;;;;;5113253;28;20514;-68
2022/11/04 01:11:14;;;;;;;1.23;0.30;;;11.20;99.90;;;;;;5113234;28;20043;-68
2022/11/04 01:13:39;;;;;;;1.13;0.20;;;11.20;99.90;;;;;;5114763;28;20050;-68
2022/11/04 01:16:08;;;;;;;2.72;0.30;;;11.10;99.90;;;;;;5114730;28;20488;-68
2022/11/04 01:18:34;;;;;;;1.63;0.35;;;11.10;99.90;;;;;;5113964;28;20118;-68
2022/11/04 01:21:01;;;;;;;1.33;0.20;;;11.10;99.90;;;;;;5113314;28;20075;-68
2022/11/04 01:23:27;;;;;;;2.63;0.50;;;11.10;99.90;;;;;;5113330;28;20112;-68
2022/11/04 01:25:53;;;;;;;3.13;0.40;;;11.10;99.90;;;;;;5113031;28;20043;-68
2022/11/04 01:28:19;;;;;;;2.35;0.30;;;11.10;99.90;;;;;;5114809;28;20039;-68
2022/11/04 01:30:44;;;;;;;2.05;0.50;;;11.00;99.90;;;;;;5112798;28;20567;-68
2022/11/04 01:33:10;;;;;;;4.22;0.40;;;11.00;99.90;;;;;;5113153;28;20043;-68
2022/11/04 01:35:35;;;;;;;3.28;0.60;;;11.00;99.90;;;;;;5112881;28;20079;-68
2022/11/04 01:38:01;;;;;;;1.45;0.50;;;11.00;99.90;;;;;;5114335;28;20084;-68
2022/11/04 01:40:26;;;;;;;2.28;0.40;;;11.00;99.90;;;;;;5112957;28;20043;-68
2022/11/04 01:42:52;;;;;;;5.07;0.73;;;11.00;99.90;;;;;;5113901;28;20051;-68
2022/11/04 01:45:19;;;;;;;1.83;0.40;;;11.00;99.90;;;;;;5113952;28;20118;-68
2022/11/04 01:47:55;;;;;;;2.20;0.32;;;11.00;99.90;;;;;;5112644;28;20111;-68
2022/11/04 01:50:27;;;;;;;3.03;0.43;;;11.00;99.90;;;;;;5112553;28;20075;-68
2022/11/04 01:53:09;;;;;;;1.83;0.30;;;11.00;99.90;;;;;;5112862;28;20135;-68
2022/11/04 01:55:40;;;;;;;5.95;0.40;;;11.00;99.90;;;;;;5112558;28;20040;-68
2022/11/04 01:58:15;;;;;;;4.25;0.45;;;11.00;99.90;;;;;;5095547;28;20116;-68
2022/11/04 02:00:42;;;;;;;3.30;0.57;;;11.00;99.90;;;;;;5112459;28;20043;-68
2022/11/04 02:03:18;;;;;;;1.33;0.40;;;11.00;99.90;;;;;;5112419;28;20403;-68
2022/11/04 02:05:46;;;;;;;2.35;0.30;;;11.10;99.90;;;;;;5113935;28;20036;-68
2022/11/04 02:08:14;;;;;;;2.25;0.40;;;11.00;99.90;;;;;;5113607;28;20500;-68
2022/11/04 02:10:44;;;;;;;1.20;0.20;;;11.10;99.90;;;;;;5112219;28;20440;-68
2022/11/04 02:13:10;;;;;;;1.23;0.30;;;11.00;99.90;;;;;;5112404;28;20036;-68
2022/11/04 02:15:50;;;;;;;1.10;0.30;;;11.10;99.90;;;;;;5112565;28;20032;-68
2022/11/04 02:18:30;;;;;;;1.40;0.30;;;11.10;99.90;;;;;;5113838;28;20036;-68
2022/11/04 02:21:08;;;;;;;2.08;0.20;;;11.10;99.90;;;;;;5112332;28;20047;-68
2022/11/04 02:24:01;;;;;;;1.80;0.28;;;11.00;99.90;;;;;;5112277;28;20044;-68
2022/11/04 02:27:08;;;;;;;3.25;0.47;;;11.10;99.90;;;;;;5112547;28;20492;-68
2022/11/04 02:29:42;;;;;;;1.83;0.10;;;11.00;99.90;;;;;;5014426;28;20188;-68
2022/11/04 02:32:30;;;;;;;1.55;0.20;;;11.00;99.90;;;;;;5014331;28;20049;-68
2022/11/04 02:35:11;;;;;;;1.83;0.20;;;11.00;99.90;;;;;;5030842;28;20046;-68
2022/11/04 02:38:03;;;;;;;2.55;0.30;;;11.00;99.90;;;;;;5014374;28;20046;-68
2022/11/04 02:41:10;;;;;;;1.45;0.20;;;11.00;99.90;;;;;;5032838;28;20148;-68
2022/11/04 02:44:11;;;;;;;0.80;0.20;;;11.00;99.90;;;;;;5018428;28;20098;-68
2022/11/04 02:46:59;;;;;;;1.33;0.28;;;11.00;99.90;;;;;;5034598;28;20438;-68
2022/11/04 02:49:31;;;;;;;3.95;0.20;;;11.00;99.90;;;;;;5018038;28;20077;-68
2022/11/04 02:52:03;;;;;;;1.42;0.30;;;10.90;99.90;;;;;;5034913;28;20057;-68
2022/11/04 02:54:47;;;;;;;1.80;0.30;;;10.90;99.90;;;;;;5034537;28;20120;-68
2022/11/04 02:57:20;;;;;;;1.48;0.40;;;10.90;99.90;;;;;;5034734;28;20516;-68
2022/11/04 02:59:52;;;;;;;2.17;0.40;;;10.90;99.90;;;;;;5034645;28;20529;-68
2022/11/04 03:02:25;;;;;;;2.33;0.43;;;10.90;99.90;;;;;;5034436;28;20473;-68
2022/11/04 03:04:52;;;;;;;3.67;0.65;;;10.90;99.90;;;;;;5065310;28;20055;-68
2022/11/04 03:07:24;;;;;;;2.78;0.70;;;10.90;99.90;;;;;;5115998;28;20047;-68
2022/11/04 03:09:54;;;;;;;2.80;0.85;;;11.00;99.90;;;;;;5115591;28;20051;-68
2022/11/04 03:12:24;;;;;;;2.72;0.80;;;10.90;99.90;;;;;;5115631;28;20043;-68
2022/11/04 03:15:01;;;;;;;5.20;0.63;;;10.90;99.90;;;;;;5116454;28;20096;-68
2022/11/04 03:17:31;;;;;;;3.22;0.60;;;11.00;99.90;;;;;;5098559;28;20069;-68
2022/11/04 03:19:59;;;;;;;1.92;0.57;;;11.00;99.90;;;;;;5115470;28;20039;-68
2022/11/04 03:22:28;;;;;;;3.70;0.60;;;11.00;99.90;;;;;;5115688;28;20051;-68
2022/11/04 03:24:54;;;;;;;2.80;0.50;;;10.90;99.90;;;;;;5116891;28;20089;-68
2022/11/04 03:27:25;;;;;;;3.30;0.90;;;10.90;99.90;;;;;;5115377;28;20039;-68
2022/11/04 03:30:06;;;;;;;5.03;1.10;;;10.90;99.90;;;;;;5115168;28;20096;-68
2022/11/04 03:32:44;;;;;;;1.77;1.00;;;11.00;99.90;;;;;;5115279;28;20044;-68
2022/11/04 03:35:12;;;;;;;4.88;1.00;;;10.90;99.90;;;;;;5115514;28;20043;-68
2022/11/04 03:37:38;;;;;;;5.13;1.00;;;10.90;99.90;;;;;;5115406;28;20036;-68
2022/11/04 03:40:04;;;;;;;4.95;0.60;;;10.90;99.90;;;;;;5116274;28;20515;-68
2022/11/04 03:42:33;;;;;;;3.78;0.40;;;10.90;99.90;;;;;;5115224;28;20075;-68
2022/11/04 03:44:59;;;;;;;6.10;0.68;;;10.90;99.90;;;;;;5114973;28;20039;-68
2022/11/04 03:47:26;;;;;;;2.80;0.40;;;10.80;99.90;;;;;;5114982;28;20116;-68
2022/11/04 03:50:11;;;;;;;2.67;0.32;;;10.70;99.90;;;;;;5116010;28;20434;-68
2022/11/04 03:52:37;;;;;;;2.50;0.35;;;10.60;99.90;;;;;;5113659;28;20048;-68
2022/11/04 03:55:05;;;;;;;3.97;0.30;;;10.60;99.90;;;;;;5114808;28;20043;-68
2022/11/04 03:57:49;;;;;;;1.45;0.30;;;10.50;99.90;;;;;;5114764;28;20052;-68
2022/11/04 04:00:20;;;;;;;0.52;0.20;;;10.50;99.90;;;;;;5114658;28;20047;-68
2022/11/04 04:02:54;;;;;;;1.60;0.10;;;10.50;99.90;;;;;;5114625;28;20122;-68
2022/11/04 04:05:22;;;;;;;0.98;0.20;;;10.40;99.90;;;;;;5114646;28;20407;-68
2022/11/04 04:08:04;;;;;;;2.47;0.30;;;10.40;99.90;;;;;;5114828;28;20046;-68
2022/11/04 04:10:43;;;;;;;0.57;0.20;;;10.50;99.90;;;;;;5114418;28;20039;-68
2022/11/04 04:13:32;;;;;;;1.83;0.30;;;10.40;99.90;;;;;;5114521;28;20047;-68
2022/11/04 04:16:09;;;;;;;2.75;0.22;;;10.40;99.90;;;;;;5116021;28;20046;-68
2022/11/04 04:18:44;;;;;;;5.95;0.60;;;10.40;99.90;;;;;;5115918;28;20032;-68
2022/11/04 04:21:17;;;;;;;3.40;0.50;;;10.40;99.90;;;;;;5115707;28;20400;-68
2022/11/04 04:29:17;;;;;;;4.57;0.43;;;10.50;99.90;;;;;;5114105;28;20052;-68
2022/11/04 04:31:48;;;;;;;3.20;0.25;;;10.50;99.90;;;;;;5115518;28;20054;-68
2022/11/04 04:34:20;;;;;;;1.00;0.30;;;10.50;99.90;;;;;;5114049;28;20092;-68
2022/11/04 04:37:12;;;;;;;3.25;0.30;;;10.50;99.90;;;;;;5114040;28;20050;-68
2022/11/04 04:45:31;;;;;;;6.07;0.43;;;10.50;99.90;;;;;;5113866;28;20047;-68
2022/11/04 04:47:57;;;;;;;4.25;0.30;;;10.50;99.90;;;;;;5114042;28;20506;-68
2022/11/04 04:50:26;;;;;;;2.50;0.25;;;10.50;99.90;;;;;;5113653;28;20128;-68
2022/11/04 04:52:53;;;;;;;2.95;0.38;;;10.40;99.90;;;;;;5113653;28;20495;-68
2022/11/04 04:55:19;;;;;;;2.60;0.38;;;10.50;99.90;;;;;;5113647;28;20043;-68
2022/11/04 04:57:45;;;;;;;2.13;0.30;;;10.50;99.90;;;;;;5114838;28;20085;-68
2022/11/04 05:00:17;;;;;;;1.83;0.35;;;10.50;99.90;;;;;;5113498;28;20039;-68
2022/11/04 05:02:42;;;;;;;2.53;0.30;;;10.50;99.90;;;;;;5113455;28;20514;-68
2022/11/04 05:05:08;;;;;;;2.20;0.40;;;10.50;99.90;;;;;;5113471;28;20044;-68
2022/11/04 05:07:34;;;;;;;5.22;0.50;;;10.50;99.90;;;;;;5113407;28;20047;-68
2022/11/04 05:10:00;;;;;;;4.38;0.35;;;10.50;99.90;;;;;;5113224;28;20112;-68
2022/11/04 05:13:24;;;;;;;1.27;0.38;;;10.50;99.90;;;;;;5113557;28;20125;-68
2022/11/04 05:15:11;;;;;;;1.00;0.32;;;10.60;99.90;;;;;;5113916;28;20104;-68
2022/11/04 05:17:36;;;;;;;1.15;0.30;;;10.60;99.90;;;;;;5113427;28;20040;-68
2022/11/04 05:20:02;;;;;;;1.73;0.60;;;10.50;99.90;;;;;;5113378;28;20123;-68
2022/11/04 05:22:28;;;;;;;1.95;0.40;;;10.50;99.90;;;;;;5113114;28;20484;-68
2022/11/04 05:24:53;;;;;;;4.30;0.50;;;10.50;99.90;;;;;;5113014;28;20043;-68
2022/11/04 05:27:19;;;;;;;3.33;0.40;;;10.50;99.90;;;;;;5113281;28;20139;-68
2022/11/04 05:29:44;;;;;;;3.55;0.60;;;10.40;99.90;;;;;;5114344;28;20050;-68
2022/11/04 05:32:10;;;;;;;1.95;0.40;;;10.40;99.90;;;;;;5112944;28;20140;-68
2022/11/04 05:34:35;;;;;;;2.53;0.32;;;10.40;99.90;;;;;;5114156;28;20035;-68
2022/11/04 05:37:01;;;;;;;2.55;0.30;;;10.40;99.90;;;;;;5112851;28;20031;-68
2022/11/04 05:39:26;;;;;;;1.70;0.30;;;10.40;99.90;;;;;;5112822;28;20046;-68
2022/11/04 05:41:52;;;;;;;1.42;0.40;;;10.40;99.90;;;;;;5112802;28;20048;-68
2022/11/04 05:44:17;;;;;;;2.33;0.60;;;10.30;99.90;;;;;;5113045;28;20500;-68
2022/11/04 05:46:43;;;;;;;3.28;0.65;;;10.30;99.90;;;;;;5113917;28;20519;-68
2022/11/04 05:49:08;;;;;;;4.13;0.40;;;10.40;99.90;;;;;;5112853;28;20054;-68
2022/11/04 05:51:34;;;;;;;4.40;0.38;;;10.30;99.90;;;;;;5112571;28;20046;-68
2022/11/04 05:54:00;;;;;;;2.45;0.60;;;10.30;99.90;;;;;;5112849;28;20039;-68
2022/11/04 05:56:26;;;;;;;3.30;0.40;;;10.30;99.90;;;;;;5114098;28;20035;-68
2022/11/04 05:58:51;;;;;;;2.97;0.40;;;10.20;99.90;;;;;;5114301;28;20383;-68
2022/11/04 06:01:38;;;;;;;2.17;0.52;;;10.20;99.90;;;;;;5112433;28;20099;-68
2022/11/04 06:04:05;;;;;;;2.10;0.30;;;10.20;99.90;;;;;;5112784;28;20051;-68
2022/11/04 06:06:34;;;;;;;2.95;0.43;;;10.10;99.90;;;;;;5095426;28;20397;-68
2022/11/04 06:09:00;;;;;;;2.17;0.30;;;10.10;99.90;;;;;;5112334;28;20047;-68
2022/11/04 06:11:27;;;;;;;3.92;0.50;;;10.00;99.90;;;;;;5112328;28;20040;-68
2022/11/04 06:13:54;;;;;;;3.38;0.50;;;10.00;99.90;;;;;;5112274;28;20078;-68
2022/11/04 06:16:20;;;;;;;1.55;0.40;;;10.00;99.90;;;;;;5111981;28;20044;-68
2022/11/04 06:18:46;;;;;;;1.95;0.47;;;9.90;99.90;;;;;;5112539;28;20402;-68
2022/11/04 06:21:14;;;;;;;6.35;0.68;;;9.90;99.90;;;;;;5112461;28;20035;-68
2022/11/04 06:23:41;;;;;;;3.42;0.60;;;9.80;99.90;;;;;;5112260;28;20088;-68
2022/11/04 06:26:07;;;;;;;2.72;0.38;;;9.80;99.90;;;;;;5095488;28;20040;-68
2022/11/04 06:28:32;;;;;;;3.00;0.45;;;9.70;99.90;;;;;;5112494;28;20517;-68
2022/11/04 06:31:01;;;;;;;2.75;0.40;;;9.70;99.90;;;;;;5112067;28;20043;-68
2022/11/04 06:33:28;;;;;;;1.10;0.28;;;9.60;99.90;;;;;;5112107;28;20490;-68
2022/11/04 06:36:01;;;;;;;0.88;0.40;;;9.60;99.90;;;;;;5112133;28;20043;-68
2022/11/04 06:38:28;;;;;;;;;;;9.60;99.90;;;;;;5112461;28;20043;-68
2022/11/04 06:40:54;;;;;;;1.92;0.43;;;9.40;99.90;;;;;;5112114;28;20291;-68
2022/11/04 06:43:19;;;;;;;4.28;0.70;;;9.40;99.90;;;;;;5113323;28;20040;-68
2022/11/04 06:45:53;;;;;;;2.95;0.70;;;9.40;99.90;;;;;;5112310;28;20049;-68
2022/11/04 06:48:18;;;;;;;1.30;0.40;;;9.40;99.90;;;;;;5112110;28;20036;-68
2022/11/04 06:50:44;;;;;;;1.80;0.40;;;9.40;99.90;;;;;;5111891;28;20191;-68
2022/11/04 06:53:09;;;;;;;3.17;0.65;;;9.40;99.90;;;;;;5112033;28;20035;-68
2022/11/04 06:55:35;;;;;;;1.60;0.30;;;9.40;99.90;;;;;;5111947;28;20040;-68
2022/11/04 06:58:00;;;;;;;3.05;0.40;;;9.40;99.90;;;;;;5111983;28;20035;-68
2022/11/04 07:00:26;;;;;;;3.47;0.50;;;9.50;99.90;;;;;;5112203;28;20047;-67
2022/11/04 07:02:52;;;;;;;2.92;0.40;;;9.50;99.90;;;;;;5094989;28;20385;-68
2022/11/04 07:05:17;;;;;;;1.17;0.30;;;9.50;99.90;;;;;;5112177;28;20051;-68
2022/11/04 07:07:43;;;;;;;2.15;0.40;;;9.50;99.90;;;;;;5112108;28;20052;-68
2022/11/04 07:10:08;;;;;;;4.65;0.85;;;9.50;99.90;;;;;;5112526;28;20092;-68
2022/11/04 07:12:34;;;;;;;2.60;0.40;;;9.60;99.90;;;;;;5111828;28;20040;-68
2022/11/04 07:14:59;;;;;;;1.20;0.28;;;9.60;99.90;;;;;;5111788;28;20042;-67
2022/11/04 07:17:25;;;;;;;1.90;0.35;;;9.60;99.90;;;;;;5113605;28;20040;-67
2022/11/04 07:19:51;;;;;;;1.08;0.30;;;9.60;99.90;;;;;;5111744;28;20160;-67
2022/11/04 07:22:16;;;;;;;3.10;0.50;;;9.60;99.90;;;;;;5111725;28;20046;-67
2022/11/04 07:24:42;;;;;;;2.17;0.43;;;9.60;99.90;;;;;;5111730;28;20097;-67
2022/11/04 07:27:08;;;;;;;2.00;0.40;;;9.60;99.90;;;;;;5114175;28;20110;-67
2022/11/04 07:29:33;;;;;;;2.70;0.50;;;9.60;99.90;;;;;;5115186;28;20044;-68
2022/11/04 07:31:59;;;;;;;2.83;0.80;;;9.60;99.90;;;;;;5115504;28;20054;-68
2022/11/04 07:34:24;;;;;;;1.35;0.40;;;9.50;99.90;;;;;;5115233;28;20081;-68
2022/11/04 07:36:50;;;;;;;3.85;0.50;;;9.60;99.90;;;;;;5115205;28;20052;-68
2022/11/04 07:39:16;;;;;;;2.38;0.50;;;9.50;99.90;;;;;;5115128;28;20039;-68
2022/11/04 07:41:41;;;;;;;2.78;0.60;;;9.50;99.90;;;;;;5116158;28;20126;-69
2022/11/04 07:44:10;;;;;;;4.85;0.63;;;9.40;99.90;;;;;;5115172;28;20040;-68
2022/11/04 07:46:36;;;;;;;3.67;0.70;;;9.40;99.90;;;;;;5116505;28;20035;-68
2022/11/04 07:49:01;;;;;;;1.58;0.60;;;9.50;99.90;;;;;;5116606;28;20035;-68
2022/11/04 07:51:27;;;;;;;3.85;0.70;;;9.40;99.90;;;;;;5116296;28;20031;-68
2022/11/04 07:53:54;;;;;;;2.97;0.60;;;9.40;99.90;;;;;;5114961;28;20040;-68
2022/11/04 07:56:20;;;;;;;4.40;0.98;;;9.50;99.90;;;;;;5114798;28;20039;-68
2022/11/04 07:58:46;;;;;;;2.38;0.80;;;9.50;99.90;;;;;;5115016;28;20042;-68
2022/11/04 08:01:15;;;;;;;5.00;0.82;;;9.50;99.90;;;;;;5114634;27;20044;-68
2022/11/04 08:03:41;;;;;;;2.55;1.00;;;9.50;99.90;;;;;;5114675;28;20071;-70
2022/11/04 08:06:09;;;;;;;2.70;0.70;;;9.60;99.90;;;;;;5114549;28;20408;-69
2022/11/04 08:08:36;;;;;;;3.33;0.70;;;9.60;99.90;;;;;;5115950;28;20415;-68
2022/11/04 08:11:16;;;;;;;5.07;1.00;;;9.60;99.90;;;;;;5114443;28;20048;-68
2022/11/04 08:13:43;;;;;;;4.72;0.70;;;9.70;99.90;;;;;;5115055;28;20042;-68
2022/11/04 08:16:17;;;;;;;3.67;0.68;;;9.70;99.90;;;;;;5114429;28;20044;-68
2022/11/04 08:18:43;;;;;;;2.70;0.70;;;9.70;99.90;;;;;;5115921;28;20044;-68
2022/11/04 08:21:10;;;;;;;3.67;0.88;;;9.80;99.90;;;;;;5114480;28;20389;-68
2022/11/04 08:23:35;;;;;;;3.03;0.90;;;9.80;99.90;;;;;;5114534;28;20044;-68
2022/11/04 08:26:05;;;;;;;3.50;0.70;;;9.90;99.90;;;;;;5097217;28;20127;-68
2022/11/04 08:28:31;;;;;;;2.53;0.90;;;9.90;99.90;;;;;;5114423;28;20500;-68
2022/11/04 08:31:03;;;;;;;3.05;0.70;;;10.00;99.90;;;;;;5114022;28;20096;-68
2022/11/04 08:33:31;;;;;;;2.35;0.70;;;10.10;99.90;;;;;;5097122;28;20119;-68
2022/11/04 08:36:00;;;;;;;1.90;0.60;;;10.20;99.90;;;;;;5114041;28;20047;-68
2022/11/04 08:38:26;;;;;;;6.28;0.70;;;10.40;99.90;;;;;;5113325;28;20092;-68
2022/11/04 08:40:51;;;;;;;3.13;0.73;;;10.40;99.90;;;;;;5113671;28;20040;-68
2022/11/04 08:43:17;;;;;;;3.15;0.80;;;10.50;99.90;;;;;;5113965;28;20176;-68
2022/11/04 08:45:45;;;;;;;3.67;1.10;;;10.60;99.90;;;;;;5115076;28;20046;-68
2022/11/04 08:48:11;;;;;;;3.70;0.80;;;10.60;99.90;;;;;;5115010;28;20073;-68
2022/11/04 08:50:37;;;;;;;1.38;0.47;;;10.60;99.90;;;;;;5113558;28;20380;-68
2022/11/04 08:53:04;;;;;;;2.17;0.60;;;10.70;99.90;;;;;;5113949;28;20047;-68
2022/11/04 08:55:31;;;;;;;4.05;0.60;;;10.60;99.90;;;;;;5113638;28;20085;-68
2022/11/04 08:57:57;;;;;;;2.65;0.93;;;10.70;99.90;;;;;;5113558;28;20118;-68
2022/11/04 09:00:23;;;;;;;2.20;0.73;;;10.80;99.90;;;;;;5113492;28;20224;-68
2022/11/04 09:02:48;;;;;;;4.03;0.93;;;10.80;99.90;;;;;;5113524;28;20067;-68
2022/11/04 09:05:14;;;;;;;3.63;0.80;;;10.90;99.90;;;;;;5113307;28;20048;-68
2022/11/04 09:07:40;;;;;;;4.78;1.00;;;10.90;99.90;;;;;;5113705;28;20035;-68
2022/11/04 09:10:06;;;;;;;3.30;0.90;;;10.90;99.90;;;;;;5113195;28;20461;-68
2022/11/04 09:12:32;;;;;;;2.47;0.73;;;11.00;99.90;;;;;;5114577;28;20040;-68
2022/11/04 09:14:58;;;;;;;5.75;1.00;;;11.00;99.90;;;;;;5113496;28;20396;-68
2022/11/04 09:17:24;;;;;;;5.60;0.90;;;11.00;99.90;;;;;;5113479;28;20446;-68
2022/11/04 09:19:50;;;;;;;4.50;1.02;;;11.10;99.90;;;;;;5113124;28;20492;-68
2022/11/04 09:22:15;;;;;;;3.60;0.90;;;11.20;99.90;;;;;;5113454;28;20084;-68
2022/11/04 09:24:41;;;;;;;4.57;1.10;;;11.30;99.90;;;;;;5113060;28;20044;-68
2022/11/04 09:27:06;;;;;;;4.65;1.40;;;11.30;99.90;;;;;;5114575;28;20109;-68
2022/11/04 09:29:32;;;;;;;4.28;1.17;;;11.40;99.90;;;;;;5113092;28;20070;-68
2022/11/04 09:31:59;;;;;;;5.47;1.30;;;11.30;99.90;;;;;;5112946;28;20484;-68
2022/11/04 09:34:25;;;;;;;3.03;1.10;;;11.30;99.90;;;;;;5112900;28;20036;-68
2022/11/04 09:36:54;;;;;;;5.28;1.73;;;11.30;99.90;;;;;;5112920;28;20051;-69
2022/11/04 09:39:19;;;;;;;8.00;3.28;;;11.30;99.90;;;;;;5113055;28;20043;-69
2022/11/04 09:42:23;;;;;;;5.32;3.47;;;11.40;99.90;;;;;;5113977;28;20511;-69
2022/11/04 09:44:53;;;;;;;6.32;3.92;;;11.50;99.90;;;;;;5114563;28;20510;-69
2022/11/04 09:47:21;;;;;;;5.75;4.22;;;11.60;99.90;;;;;;5112582;28;20115;-69
2022/11/04 09:49:50;;;;;;;6.38;4.82;;;11.80;99.90;;;;;;5111191;28;20526;-69
2022/11/04 09:52:29;;;;;;;6.22;4.63;;;11.90;99.90;;;;;;5112548;28;20462;-69
2022/11/04 09:55:17;;;;;;;8.40;5.10;;;11.90;99.90;;;;;;5112876;28;20035;-69
2022/11/04 09:57:42;;;;;;;6.05;4.35;;;12.00;99.90;;;;;;5112791;28;20515;-69
2022/11/04 10:00:16;;;;;;;6.90;3.70;;;12.10;99.90;;;;;;5113687;28;20035;-69
2022/11/04 10:03:07;;;;;;;8.68;4.80;;;12.20;99.90;;;;;;5112737;28;20043;-69
2022/11/04 10:05:39;;;;;;;6.38;4.05;;;12.20;99.90;;;;;;5112702;28;20066;-69
2022/11/04 10:08:42;;;;;;;8.13;5.20;;;12.20;99.90;;;;;;5112370;28;20039;-69
2022/11/04 10:11:26;;;;;;;8.95;5.10;;;12.10;99.90;;;;;;5095311;28;20050;-69
2022/11/04 10:14:10;;;;;;;6.75;3.63;;;12.00;99.90;;;;;;5112609;28;20452;-69
2022/11/04 10:17:00;;;;;;;7.45;4.22;;;12.00;99.90;;;;;;5113536;28;20096;-69
2022/11/04 10:19:54;;;;;;;8.32;4.40;;;11.90;99.90;;;;;;5095289;28;20073;-69
2022/11/04 10:22:30;;;;;;;7.32;4.80;;;11.90;99.90;;;;;;5095603;28;20063;-69
2022/11/04 10:25:05;;;;;;;7.68;4.75;;;12.00;99.90;;;;;;5112262;28;20050;-69
2022/11/04 10:27:36;;;;;;;9.07;4.95;;;12.10;99.90;;;;;;5112566;28;20511;-69
2022/11/04 10:30:21;;;;;;;8.43;5.28;;;12.10;99.90;;;;;;5112085;28;20608;-69
2022/11/04 10:32:51;;;;;;;8.75;5.05;;;12.10;99.90;;;;;;5112220;28;20047;-70
2022/11/04 10:35:45;;;;;;;7.60;4.90;;;12.10;99.90;;;;;;5112202;28;20389;-69
2022/11/04 10:38:18;;;;;;;7.20;4.97;;;12.10;99.90;;;;;;5112828;28;20122;-69
2022/11/04 10:40:50;;;;;;;8.35;4.70;;;12.10;99.90;;;;;;5113166;28;20044;-71
2022/11/04 10:43:26;;;;;;;6.90;4.80;;;12.10;99.90;;;;;;5114511;28;20044;-71
2022/11/04 10:46:13;;;;;;;8.02;4.60;;;12.10;99.90;;;;;;5115700;28;20100;-71
2022/11/04 10:48:50;;;;;;;8.40;4.20;;;12.10;99.90;;;;;;5116045;28;20118;-71
2022/11/04 10:51:21;;;;;;;12.95;4.82;;;12.20;99.90;;;;;;5114895;28;20040;-71
2022/11/04 10:53:54;;;;;;;6.10;3.50;;;12.40;99.90;;;;;;5114188;28;20109;-71
2022/11/04 10:56:46;;;;;;;7.53;3.40;;;12.80;99.90;;;;;;5115099;28;20032;-71
2022/11/04 10:59:26;;;;;;;5.88;3.42;;;12.80;99.90;;;;;;5114158;28;20046;-71
2022/11/04 11:02:00;;;;;;;6.55;3.80;;;12.80;99.90;;;;;;5116704;28;20039;-71
2022/11/04 11:04:37;;;;;;;6.60;4.07;;;12.80;99.90;;;;;;5117903;28;20032;-71
2022/11/04 11:07:08;;;;;;;6.97;3.50;;;13.00;99.90;;;;;;5117514;28;20039;-71
2022/11/04 11:09:40;;;;;;;6.55;3.10;;;13.70;99.90;;;;;;5117038;28;20055;-70
2022/11/04 11:12:28;;;;;;;8.88;3.13;;;14.60;99.90;;;;;;5118249;28;20062;-70
2022/11/04 11:14:55;;;;;;;4.47;3.20;;;15.10;99.90;;;;;;5117290;28;20530;-71
2022/11/04 11:17:36;;;;;;;6.05;3.00;;;16.40;99.90;;;;;;5116732;28;20035;-71
2022/11/04 11:20:15;;;;;;;5.32;2.97;;;18.00;99.90;;;;;;5116619;28;20495;-71
2022/11/04 11:22:43;;;;;;;6.90;2.65;;;19.20;99.90;;;;;;5116960;28;20047;-70
2022/11/04 11:25:19;;;;;;;4.47;2.28;;;18.70;99.70;;;;;;5117230;28;20165;-71
2022/11/04 11:28:03;;;;;;;15.32;2.72;;;17.80;99.90;;;;;;5116996;28;20036;-71
2022/11/04 11:30:45;;;;;;;8.38;3.30;;;17.10;99.90;;;;;;5116356;28;20043;-70
2022/11/04 11:33:30;;;;;;;6.15;2.67;;;16.90;99.90;;;;;;5116773;28;20040;-71
2022/11/04 11:36:11;;;;;;;7.53;3.00;;;16.90;99.90;;;;;;5116691;28;20036;-71
2022/11/04 11:38:49;;;;;;;4.43;2.75;;;17.70;99.90;;;;;;5116912;28;20496;-71
2022/11/04 11:41:17;;;;;;;7.82;2.85;;;18.10;99.90;;;;;;5116362;28;20043;-70
2022/11/04 11:43:50;;;;;;;6.78;2.25;;;17.50;99.90;;;;;;5116757;28;20046;-71
2022/11/04 11:46:25;;;;;;;4.85;1.70;;;16.70;99.90;;;;;;5117014;28;20032;-71
2022/11/04 11:48:53;;;;;;;9.70;2.60;;;16.00;99.90;;;;;;5116870;28;20109;-72
2022/11/04 11:51:32;;;;;;;7.75;2.00;;;15.50;99.90;;;;;;5099316;28;20035;-71
2022/11/04 11:54:06;;;;;;;7.45;2.20;;;15.90;99.90;;;;;;5116590;28;20449;-71
2022/11/04 11:56:42;;;;;;;5.43;2.05;;;16.30;99.90;;;;;;5116454;28;20062;-72
2022/11/04 11:59:27;;;;;;;6.78;2.47;;;16.20;99.90;;;;;;5117076;28;20110;-72
2022/11/04 12:02:22;;;;;;;6.25;1.10;;;15.80;99.90;;;;;;5099049;28;20081;-71
2022/11/04 12:04:47;;;;;;;4.10;0.40;;;15.10;99.90;;;;;;5115639;28;20043;-72
2022/11/04 12:07:34;;;;;;;2.90;0.80;;;14.50;99.90;;;;;;5116375;28;20066;-71
2022/11/04 12:10:25;;;;;;;3.80;0.90;;;14.00;99.90;;;;;;5116082;28;20070;-71
2022/11/04 12:13:22;;;;;;;3.40;0.68;;;13.40;99.90;;;;;;5115395;28;20047;-71
2022/11/04 12:16:13;;;;;;;3.47;0.70;;;13.00;99.90;;;;;;5116263;28;20042;-71
2022/11/04 12:18:57;;;;;;;5.13;0.70;;;12.60;99.90;;;;;;5070994;28;20504;-71
2022/11/04 12:21:37;;;;;;;4.03;0.70;;;12.40;99.90;;;;;;5115769;28;20122;-71
2022/11/04 12:24:26;;;;;;;3.97;0.70;;;12.20;99.90;;;;;;5116294;28;20447;-70
2022/11/04 12:27:19;;;;;;;4.85;0.60;;;12.00;99.90;;;;;;5115703;28;20123;-71
2022/11/04 12:30:11;;;;;;;6.80;0.70;;;11.90;99.90;;;;;;5114782;28;20105;-73
2022/11/04 12:32:54;;;;;;;5.93;2.03;;;11.90;99.90;;;;;;5114424;28;20032;-73
2022/11/04 12:35:39;;;;;;;13.93;5.55;;;11.80;99.90;;;;;;5097241;28;20039;-74
2022/11/04 12:38:48;;;;;;;14.18;7.75;;;11.80;99.90;;;;;;5114470;28;20035;-74
2022/11/04 12:41:28;;;;;;;7.30;2.60;;;11.80;99.90;;;;;;5101851;28;20051;-74
2022/11/04 12:44:12;;;;;;;4.88;0.95;;;11.70;99.90;;;;;;5113979;28;20039;-73
2022/11/04 12:46:48;;;;;;;3.85;0.68;;;11.70;99.90;;;;;;5114115;28;20122;-73
2022/11/04 12:49:32;;;;;;;4.70;0.90;;;11.60;99.90;;;;;;5113999;28;20537;-73
2022/11/04 12:52:28;;;;;;;4.65;0.98;;;11.60;99.90;;;;;;5113822;28;20127;-73
2022/11/04 12:55:19;;;;;;;5.72;0.98;;;11.60;99.90;;;;;;5113780;28;20086;-73
2022/11/04 12:57:56;;;;;;;9.02;1.67;;;11.50;99.90;;;;;;5113961;28;20127;-72
2022/11/04 13:00:25;;;;;;;3.22;0.90;;;11.50;99.90;;;;;;5113915;28;20047;-72
2022/11/04 13:03:11;;;;;;;5.00;1.00;;;11.40;99.90;;;;;;5113562;28;20468;-72
2022/11/04 13:05:51;;;;;;;5.03;1.17;;;11.40;99.90;;;;;;5114371;28;20043;-70
2022/11/04 13:08:52;;;;;;;6.75;0.98;;;11.40;99.90;;;;;;5114201;28;20051;-70
2022/11/04 13:11:52;;;;;;;6.93;0.95;;;11.40;99.90;;;;;;5114563;28;20054;-70
2022/11/04 13:14:29;;;;;;;5.25;0.73;;;11.40;99.90;;;;;;5115186;28;20047;-70
2022/11/04 13:17:03;;;;;;;4.00;0.85;;;11.40;99.90;;;;;;5114102;28;20044;-74
2022/11/04 13:19:36;;;;;;;4.95;0.80;;;11.70;99.90;;;;;;5113617;28;20031;-73
2022/11/04 13:22:10;;;;;;;9.93;1.67;;;12.80;99.90;;;;;;5113601;28;20031;-73
2022/11/04 13:24:47;;;;;;;6.35;0.80;;;14.40;99.90;;;;;;5096551;28;20080;-71
2022/11/04 13:27:19;;;;;;;3.40;0.65;;;16.00;99.90;;;;;;5114815;28;20055;-71
2022/11/04 13:29:46;;;;;;;3.45;0.85;;;16.60;99.90;;;;;;5115452;28;20040;-71
2022/11/04 13:32:28;;;;;;;6.00;1.35;;;16.20;99.90;;;;;;5116041;28;20046;-71
2022/11/04 13:35:11;;;;;;;7.90;0.75;;;15.40;99.90;;;;;;5114996;28;20519;-71
2022/11/04 13:37:51;;;;;;;4.25;0.77;;;14.70;99.90;;;;;;5114269;28;20050;-71
2022/11/04 13:40:21;;;;;;;3.30;0.82;;;14.10;99.90;;;;;;5113980;28;20047;-70
2022/11/04 13:43:36;;;;;;;3.08;0.75;;;13.60;99.90;;;;;;5114114;28;20042;-71